Time;durP1;ratioP1;P1;durP2;ratioP2;P2;SDS_P1;SDS_P2;PMS_P1;PMS_P2;Temp;Humidity;BMP_temperature;BMP_pressure;BME280_temperature;BME280_humidity;BME280_pressure;Samples;Min_cycle;Max_cycle;Signal;HPM_P1;HPM_P2
2022/06/07 00:02:06;;;;;;;8.00;7.20;;;14.50;99.90;;;;;;4948139;28;20067;-36
2022/06/07 00:04:32;;;;;;;7.53;6.72;;;14.50;99.90;;;;;;4946272;28;20034;-36
2022/06/07 00:06:58;;;;;;;7.05;6.32;;;14.50;99.90;;;;;;4948059;28;20072;-36
2022/06/07 00:09:24;;;;;;;7.30;6.60;;;14.50;99.90;;;;;;4947116;29;20059;-36
2022/06/07 00:11:49;;;;;;;6.85;6.15;;;14.50;99.90;;;;;;4947334;29;20091;-37
2022/06/07 00:14:15;;;;;;;6.70;5.97;;;14.50;99.90;;;;;;4947208;29;20348;-36
2022/06/07 00:16:41;;;;;;;5.55;5.05;;;14.50;99.90;;;;;;4947352;29;20524;-36
2022/06/07 00:19:06;;;;;;;9.73;8.25;;;14.60;99.90;;;;;;4947118;29;20035;-35
2022/06/07 00:21:32;;;;;;;7.90;7.10;;;14.60;99.90;;;;;;4947059;29;20039;-36
2022/06/07 00:24:00;;;;;;;8.30;7.60;;;14.60;99.90;;;;;;4947319;29;20030;-36
2022/06/07 00:26:28;;;;;;;10.02;9.02;;;14.60;99.90;;;;;;4946675;29;20034;-35
2022/06/07 00:28:53;;;;;;;9.98;8.82;;;14.60;99.90;;;;;;4949404;28;20042;-36
2022/06/07 00:31:19;;;;;;;10.57;8.45;;;14.60;99.90;;;;;;4950961;29;20027;-35
2022/06/07 00:33:45;;;;;;;8.98;8.07;;;14.60;99.90;;;;;;4950287;29;20146;-35
2022/06/07 00:36:11;;;;;;;13.75;10.05;;;14.70;99.90;;;;;;4951421;29;20023;-35
2022/06/07 00:38:36;;;;;;;8.93;8.07;;;14.70;99.90;;;;;;4950998;28;20042;-36
2022/06/07 00:41:05;;;;;;;11.15;9.57;;;14.70;99.90;;;;;;4950175;29;20035;-35
2022/06/07 00:43:31;;;;;;;10.93;9.82;;;14.70;99.90;;;;;;4951250;28;20467;-35
2022/06/07 00:45:57;;;;;;;13.13;11.77;;;14.70;99.90;;;;;;4951004;29;20086;-36
2022/06/07 00:48:23;;;;;;;11.52;10.32;;;14.70;99.90;;;;;;4949956;28;20554;-37
2022/06/07 00:50:54;;;;;;;10.40;9.40;;;14.70;99.90;;;;;;4951241;28;20027;-37
2022/06/07 00:53:30;;;;;;;13.05;11.65;;;14.70;99.90;;;;;;4950755;29;20486;-36
2022/06/07 00:55:59;;;;;;;14.10;12.70;;;14.70;99.90;;;;;;4950155;28;20439;-36
2022/06/07 00:58:26;;;;;;;14.23;12.32;;;14.60;99.90;;;;;;4950964;29;20035;-36
2022/06/07 01:00:53;;;;;;;13.40;11.98;;;14.60;99.90;;;;;;4950532;28;20146;-36
2022/06/07 01:03:20;;;;;;;12.60;11.30;;;14.60;99.90;;;;;;4950954;28;20103;-36
2022/06/07 01:05:46;;;;;;;15.07;13.45;;;14.60;99.90;;;;;;4950993;28;20206;-35
2022/06/07 01:10:56;;;;;;;11.68;9.93;;;14.60;99.90;;;;;;4950503;29;20034;-36
2022/06/07 01:13:27;;;;;;;15.48;13.13;;;14.60;99.90;;;;;;4950530;28;20031;-36
2022/06/07 01:15:58;;;;;;;13.68;12.25;;;14.60;99.90;;;;;;4949723;28;20138;-36
2022/06/07 01:18:23;;;;;;;19.23;15.43;;;14.60;99.90;;;;;;4949856;28;20572;-36
2022/06/07 01:21:18;;;;;;;15.65;14.05;;;14.70;99.90;;;;;;4950540;29;20154;-37
2022/06/07 01:23:45;;;;;;;15.82;12.88;;;14.60;99.90;;;;;;4949746;28;20098;-36
2022/06/07 01:26:12;;;;;;;17.23;15.38;;;14.60;99.90;;;;;;4950487;28;20554;-35
2022/06/07 01:28:38;;;;;;;16.33;12.68;;;14.70;99.90;;;;;;4949506;28;20075;-36
2022/06/07 01:31:04;;;;;;;17.20;13.52;;;14.60;99.90;;;;;;4949625;28;20031;-35
2022/06/07 01:33:30;;;;;;;15.20;11.98;;;14.70;99.90;;;;;;4949616;28;20142;-38
2022/06/07 01:36:07;;;;;;;18.10;13.68;;;14.70;99.90;;;;;;4949466;28;20430;-36
2022/06/07 01:38:35;;;;;;;15.30;13.70;;;14.70;99.90;;;;;;4939301;29;20386;-33
2022/06/07 01:43:47;;;;;;;13.38;11.98;;;14.70;99.90;;;;;;4948973;29;20093;-37
2022/06/07 01:46:12;;;;;;;14.55;13.00;;;14.70;99.90;;;;;;4950111;29;20499;-37
2022/06/07 01:48:38;;;;;;;15.00;12.73;;;14.70;99.90;;;;;;4950359;29;20498;-36
2022/06/07 01:51:06;;;;;;;15.02;13.07;;;14.70;99.90;;;;;;4949342;28;20310;-36
2022/06/07 01:53:33;;;;;;;18.75;15.23;;;14.80;99.90;;;;;;4948794;28;20059;-35
2022/06/07 01:56:11;;;;;;;16.52;14.68;;;14.70;99.90;;;;;;4949956;28;20027;-36
2022/06/07 01:58:38;;;;;;;15.20;13.05;;;14.80;99.90;;;;;;4948475;28;20123;-37
2022/06/07 02:01:04;;;;;;;18.92;15.82;;;14.80;99.90;;;;;;4950168;28;20083;-34
2022/06/07 02:03:30;;;;;;;16.35;14.60;;;14.80;99.90;;;;;;4949606;28;20028;-34
2022/06/07 02:06:03;;;;;;;16.83;13.82;;;14.80;99.90;;;;;;4949549;29;20034;-34
2022/06/07 02:08:29;;;;;;;17.98;15.70;;;14.80;99.90;;;;;;4948790;28;20245;-36
2022/06/07 02:10:56;;;;;;;19.08;14.95;;;14.80;99.90;;;;;;4949575;28;20058;-37
2022/06/07 02:13:22;;;;;;;20.48;17.10;;;14.80;99.90;;;;;;4948644;28;20367;-36
2022/06/07 02:15:48;;;;;;;18.02;15.18;;;14.80;99.90;;;;;;4949108;28;20047;-37
2022/06/07 02:18:14;;;;;;;22.65;16.98;;;14.80;99.90;;;;;;4948382;29;20085;-35
2022/06/07 02:20:41;;;;;;;21.17;16.98;;;14.80;99.90;;;;;;4948803;28;20049;-36
2022/06/07 02:23:08;;;;;;;18.60;16.55;;;14.80;99.90;;;;;;4949174;28;20031;-36
2022/06/07 02:25:49;;;;;;;17.92;16.02;;;14.80;99.90;;;;;;4947905;28;20302;-35
2022/06/07 02:28:16;;;;;;;24.80;18.77;;;14.80;99.90;;;;;;4949214;28;20024;-36
2022/06/07 02:30:43;;;;;;;22.85;19.15;;;14.80;99.90;;;;;;4949162;28;20055;-35
2022/06/07 02:33:09;;;;;;;21.50;17.50;;;14.80;99.90;;;;;;4948003;28;20408;-36
2022/06/07 02:35:36;;;;;;;18.98;16.60;;;14.70;99.90;;;;;;4948909;28;20031;-37
2022/06/07 02:38:02;;;;;;;19.55;17.27;;;14.70;99.90;;;;;;4949101;28;20383;-37
2022/06/07 02:40:28;;;;;;;16.98;15.18;;;14.80;99.90;;;;;;4947754;28;20039;-37
2022/06/07 02:42:54;;;;;;;18.95;16.95;;;14.80;99.90;;;;;;4949148;28;20035;-37
2022/06/07 02:45:19;;;;;;;24.23;17.77;;;14.80;99.90;;;;;;4948351;29;20027;-36
2022/06/07 02:47:45;;;;;;;20.02;16.73;;;14.80;99.90;;;;;;4948131;29;20023;-35
2022/06/07 02:50:11;;;;;;;19.75;16.85;;;14.80;99.90;;;;;;4949110;29;20046;-37
2022/06/07 02:52:36;;;;;;;20.40;17.27;;;14.80;99.90;;;;;;4947254;28;20051;-36
2022/06/07 02:55:02;;;;;;;14.80;13.27;;;14.80;99.90;;;;;;4948391;29;20025;-36
2022/06/07 02:57:28;;;;;;;17.73;15.88;;;14.80;99.90;;;;;;4947665;28;20507;-35
2022/06/07 02:59:54;;;;;;;22.05;19.67;;;14.80;99.90;;;;;;4948456;29;20027;-35
2022/06/07 03:02:19;;;;;;;22.20;18.67;;;14.70;99.90;;;;;;4948358;29;20479;-36
2022/06/07 03:04:45;;;;;;;20.65;18.20;;;14.70;99.90;;;;;;4948048;29;20135;-36
2022/06/07 03:07:10;;;;;;;17.80;15.07;;;14.80;99.90;;;;;;4948900;29;20066;-36
2022/06/07 03:09:36;;;;;;;21.15;17.00;;;14.80;99.90;;;;;;4947323;29;20023;-36
2022/06/07 03:12:02;;;;;;;17.55;14.82;;;14.80;99.90;;;;;;4949234;28;20026;-37
2022/06/07 03:14:28;;;;;;;17.38;15.50;;;14.80;99.90;;;;;;4947452;28;20125;-36
2022/06/07 03:16:53;;;;;;;20.70;16.77;;;14.80;99.90;;;;;;4949006;29;20193;-35
2022/06/07 03:19:19;;;;;;;18.92;15.07;;;14.70;99.90;;;;;;4947981;28;20031;-38
2022/06/07 03:21:44;;;;;;;22.75;17.92;;;14.70;99.90;;;;;;4947235;29;20498;-36
2022/06/07 03:24:10;;;;;;;18.38;16.10;;;14.70;99.90;;;;;;4948421;29;20031;-35
2022/06/07 03:26:36;;;;;;;23.17;18.73;;;14.70;99.90;;;;;;4947478;29;20113;-37
2022/06/07 03:29:01;;;;;;;20.90;18.67;;;14.70;99.90;;;;;;4947817;29;20030;-36
2022/06/07 03:31:27;;;;;;;17.45;14.45;;;14.70;99.90;;;;;;4947340;29;20031;-35
2022/06/07 03:33:53;;;;;;;22.15;18.40;;;14.70;99.90;;;;;;4947958;28;20026;-36
2022/06/07 03:36:30;;;;;;;19.75;17.50;;;14.70;99.90;;;;;;4946875;29;20070;-36
2022/06/07 03:39:00;;;;;;;24.35;19.08;;;14.70;99.90;;;;;;4929120;29;20023;-36
2022/06/07 03:41:28;;;;;;;20.58;18.15;;;14.70;99.90;;;;;;4942619;29;20474;-36
2022/06/07 03:43:55;;;;;;;19.85;17.85;;;14.60;99.90;;;;;;4947422;28;20027;-36
2022/06/07 03:46:26;;;;;;;21.35;19.15;;;14.60;99.90;;;;;;4947460;28;20031;-37
2022/06/07 03:48:52;;;;;;;20.90;18.67;;;14.60;99.90;;;;;;4948068;28;20106;-36
2022/06/07 03:51:22;;;;;;;21.98;18.13;;;14.60;99.90;;;;;;4947052;29;20046;-37
2022/06/07 03:53:48;;;;;;;20.80;18.60;;;14.60;99.90;;;;;;4947359;28;20070;-36
2022/06/07 03:56:15;;;;;;;19.73;17.63;;;14.60;99.90;;;;;;4947313;29;20070;-36
2022/06/07 03:58:41;;;;;;;18.80;16.15;;;14.60;99.90;;;;;;4946853;28;20027;-37
2022/06/07 04:01:09;;;;;;;20.08;17.27;;;14.60;99.90;;;;;;4947576;28;20058;-37
2022/06/07 04:03:35;;;;;;;18.48;16.33;;;14.60;99.90;;;;;;4948598;28;20027;-35
2022/06/07 04:06:02;;;;;;;17.55;15.18;;;14.60;99.90;;;;;;4954128;28;20490;-36
2022/06/07 04:08:27;;;;;;;16.60;14.73;;;14.60;99.90;;;;;;4953784;28;20082;-38
2022/06/07 04:10:55;;;;;;;21.63;16.83;;;14.60;99.90;;;;;;4952895;28;20035;-36
2022/06/07 04:13:24;;;;;;;17.92;14.45;;;14.60;99.90;;;;;;4954104;28;20015;-35
2022/06/07 04:15:50;;;;;;;17.35;14.20;;;14.60;99.90;;;;;;4953845;28;20720;-36
2022/06/07 04:18:16;;;;;;;17.85;15.90;;;14.70;99.90;;;;;;4953044;28;20031;-35
2022/06/07 04:20:42;;;;;;;16.77;15.02;;;14.70;99.90;;;;;;4954530;28;20020;-43
2022/06/07 04:23:14;;;;;;;14.82;13.15;;;14.70;99.90;;;;;;4953594;28;20031;-36
2022/06/07 04:25:41;;;;;;;18.48;15.60;;;14.70;99.90;;;;;;4953275;28;20124;-36
2022/06/07 04:28:08;;;;;;;18.33;15.85;;;14.70;99.90;;;;;;4954011;28;20078;-37
2022/06/07 04:30:33;;;;;;;18.38;15.80;;;14.80;99.90;;;;;;4953210;28;20035;-36
2022/06/07 04:32:59;;;;;;;15.93;14.23;;;14.80;99.90;;;;;;4953411;29;20028;-35
2022/06/07 04:35:26;;;;;;;15.35;13.32;;;14.80;99.90;;;;;;4952876;28;20026;-36
2022/06/07 04:37:53;;;;;;;19.45;15.93;;;14.80;99.90;;;;;;4953649;28;20016;-36
2022/06/07 04:40:18;;;;;;;14.93;12.95;;;14.90;99.90;;;;;;4953121;28;20023;-36
2022/06/07 04:42:44;;;;;;;23.52;17.55;;;14.90;99.90;;;;;;4953305;28;20046;-36
2022/06/07 04:45:14;;;;;;;18.60;15.30;;;14.90;99.90;;;;;;4954279;28;20035;-36
2022/06/07 04:47:40;;;;;;;16.67;14.43;;;15.00;99.90;;;;;;4953006;28;20058;-36
2022/06/07 04:50:11;;;;;;;17.42;14.52;;;15.00;99.90;;;;;;4953974;28;20030;-35
2022/06/07 04:52:36;;;;;;;20.92;16.25;;;15.00;99.90;;;;;;4953060;28;20888;-35
2022/06/07 04:55:03;;;;;;;22.42;17.67;;;15.00;99.90;;;;;;4953762;29;20027;-37
2022/06/07 04:57:30;;;;;;;16.92;15.05;;;15.00;99.90;;;;;;4953048;28;20170;-36
2022/06/07 04:59:55;;;;;;;19.60;15.57;;;15.10;99.90;;;;;;4952851;28;20278;-36
2022/06/07 05:02:22;;;;;;;16.83;15.10;;;15.10;99.90;;;;;;4953586;28;20617;-36
2022/06/07 05:04:48;;;;;;;19.38;16.33;;;15.10;99.90;;;;;;4953169;29;20027;-36
2022/06/07 05:07:14;;;;;;;19.65;17.65;;;15.10;99.90;;;;;;4953118;28;20618;-35
2022/06/07 05:09:40;;;;;;;17.08;15.38;;;15.10;99.90;;;;;;4952971;28;20585;-36
2022/06/07 05:12:08;;;;;;;19.58;16.67;;;15.10;99.90;;;;;;4953800;28;20038;-35
2022/06/07 05:14:35;;;;;;;18.83;16.75;;;15.10;99.90;;;;;;4951940;28;20027;-36
2022/06/07 05:17:02;;;;;;;18.45;16.25;;;15.10;99.90;;;;;;4949903;28;20439;-37
2022/06/07 05:19:29;;;;;;;18.60;16.80;;;15.00;99.90;;;;;;4950155;28;20086;-36
2022/06/07 05:21:55;;;;;;;18.90;16.92;;;15.00;99.90;;;;;;4950119;29;20071;-35
2022/06/07 05:24:21;;;;;;;18.73;16.83;;;15.00;99.90;;;;;;4950257;28;20038;-36
2022/06/07 05:26:50;;;;;;;17.67;15.88;;;15.00;99.90;;;;;;4950108;28;20028;-36
2022/06/07 05:29:20;;;;;;;16.17;14.52;;;15.00;99.90;;;;;;4949478;28;20485;-36
2022/06/07 05:31:45;;;;;;;17.48;15.68;;;15.00;99.90;;;;;;4950694;28;20420;-36
2022/06/07 05:34:11;;;;;;;16.35;14.68;;;15.00;99.90;;;;;;4950054;29;20479;-38
2022/06/07 05:36:37;;;;;;;18.48;16.60;;;15.00;99.90;;;;;;4948998;28;20035;-36
2022/06/07 05:39:04;;;;;;;17.98;16.20;;;15.10;99.90;;;;;;4950003;28;20019;-35
2022/06/07 05:41:29;;;;;;;16.20;14.60;;;15.10;99.90;;;;;;4949398;28;20077;-37
2022/06/07 05:43:56;;;;;;;22.10;19.63;;;15.10;99.90;;;;;;4949160;28;20051;-37
2022/06/07 05:46:22;;;;;;;21.60;17.50;;;15.10;99.90;;;;;;4949972;29;20487;-39
2022/06/07 05:48:48;;;;;;;20.15;17.42;;;15.10;99.90;;;;;;4947874;28;20094;-36
2022/06/07 05:51:14;;;;;;;20.42;18.33;;;15.20;99.90;;;;;;4945858;28;20027;-34
2022/06/07 05:53:40;;;;;;;20.05;17.40;;;15.20;99.90;;;;;;4948712;28;20484;-36
2022/06/07 05:56:12;;;;;;;18.20;16.13;;;15.20;99.90;;;;;;4947849;28;20326;-37
2022/06/07 05:58:38;;;;;;;18.73;15.98;;;15.20;99.90;;;;;;4948941;28;20411;-35
2022/06/07 06:01:04;;;;;;;18.08;16.30;;;15.30;99.90;;;;;;4948717;28;20046;-37
2022/06/07 06:03:30;;;;;;;17.27;15.50;;;15.30;99.90;;;;;;4947794;28;20023;-36
2022/06/07 06:05:56;;;;;;;17.58;15.45;;;15.30;99.90;;;;;;4948210;28;20470;-36
2022/06/07 06:11:10;;;;;;;17.30;15.20;;;15.30;99.90;;;;;;4947924;29;20045;-37
2022/06/07 06:13:36;;;;;;;17.65;14.15;;;15.40;99.90;;;;;;4948469;28;20015;-34
2022/06/07 06:16:05;;;;;;;17.25;15.45;;;15.40;99.90;;;;;;4948151;28;20047;-36
2022/06/07 06:18:30;;;;;;;20.80;17.02;;;15.40;99.90;;;;;;4947634;28;20246;-35
2022/06/07 06:20:56;;;;;;;19.15;15.73;;;15.40;99.90;;;;;;4948060;28;20023;-37
2022/06/07 06:23:22;;;;;;;17.67;15.65;;;15.50;99.90;;;;;;4948594;29;20502;-36
2022/06/07 06:25:47;;;;;;;17.27;15.48;;;15.50;99.90;;;;;;4947083;28;20403;-37
2022/06/07 06:28:13;;;;;;;18.90;16.05;;;15.50;99.90;;;;;;4948278;28;20102;-36
2022/06/07 06:30:42;;;;;;;17.30;15.45;;;15.50;99.90;;;;;;4948379;29;20372;-36
2022/06/07 06:33:08;;;;;;;15.98;14.27;;;15.50;99.90;;;;;;4947562;28;20023;-36
2022/06/07 06:35:34;;;;;;;14.95;13.40;;;15.50;99.90;;;;;;4947361;28;20526;-36
2022/06/07 06:37:59;;;;;;;15.25;13.65;;;15.50;99.90;;;;;;4948171;29;20031;-36
2022/06/07 06:40:25;;;;;;;16.52;14.48;;;15.60;99.90;;;;;;4946503;29;20038;-35
2022/06/07 06:42:50;;;;;;;15.80;14.10;;;15.60;99.90;;;;;;4948355;29;20034;-36
2022/06/07 06:45:16;;;;;;;17.02;15.32;;;15.70;99.90;;;;;;4948474;29;20133;-36
2022/06/07 06:47:44;;;;;;;19.77;17.20;;;15.70;99.90;;;;;;4947037;29;20498;-37
2022/06/07 06:50:11;;;;;;;16.92;15.07;;;15.70;99.90;;;;;;4948850;28;20083;-36
2022/06/07 06:52:36;;;;;;;19.40;16.08;;;15.80;99.90;;;;;;4946946;28;20383;-36
2022/06/07 06:55:03;;;;;;;16.80;14.35;;;15.90;99.90;;;;;;4948658;29;20024;-36
2022/06/07 06:57:28;;;;;;;17.95;16.13;;;16.00;99.90;;;;;;4947961;28;20042;-36
2022/06/07 06:59:54;;;;;;;15.25;13.70;;;16.00;99.90;;;;;;4947706;29;20023;-37
2022/06/07 07:02:19;;;;;;;15.95;14.25;;;16.10;99.90;;;;;;4947860;29;20039;-36
2022/06/07 07:04:45;;;;;;;18.95;15.35;;;16.10;99.90;;;;;;4948251;28;20027;-36
2022/06/07 07:07:11;;;;;;;17.02;14.07;;;16.10;99.90;;;;;;4947609;28;20046;-35
2022/06/07 07:09:36;;;;;;;19.63;16.33;;;16.00;99.90;;;;;;4948468;29;20019;-36
2022/06/07 07:12:03;;;;;;;15.73;13.60;;;16.00;99.90;;;;;;4948083;29;20546;-36
2022/06/07 07:14:29;;;;;;;14.55;13.05;;;16.00;99.90;;;;;;4946577;28;20459;-36
2022/06/07 07:16:55;;;;;;;15.07;13.48;;;15.90;99.90;;;;;;4948702;28;20031;-36
2022/06/07 07:19:21;;;;;;;18.63;16.30;;;16.00;99.90;;;;;;4947558;29;20091;-35
2022/06/07 07:21:49;;;;;;;17.00;14.55;;;15.90;99.90;;;;;;4947983;28;20562;-37
2022/06/07 07:24:17;;;;;;;17.05;15.27;;;15.90;99.90;;;;;;4948521;28;20031;-37
2022/06/07 07:26:44;;;;;;;17.40;15.50;;;16.00;99.90;;;;;;4947969;28;20193;-34
2022/06/07 07:29:12;;;;;;;18.95;16.88;;;16.10;99.90;;;;;;4947435;28;20061;-36
2022/06/07 07:31:38;;;;;;;17.85;16.02;;;16.10;99.90;;;;;;4947841;28;20638;-37
2022/06/07 07:34:07;;;;;;;17.30;15.60;;;16.20;99.90;;;;;;4947971;28;20035;-37
2022/06/07 07:36:34;;;;;;;16.85;15.15;;;16.30;99.90;;;;;;4946609;28;20035;-36
2022/06/07 07:39:01;;;;;;;15.73;14.07;;;16.30;99.90;;;;;;4947440;28;20051;-36
2022/06/07 07:41:29;;;;;;;19.10;17.10;;;16.40;99.90;;;;;;4947289;28;20039;-38
2022/06/07 07:43:58;;;;;;;18.15;16.25;;;16.50;99.90;;;;;;4946973;28;20027;-36
2022/06/07 07:46:26;;;;;;;17.85;15.95;;;16.50;99.90;;;;;;4947508;28;20035;-36
2022/06/07 07:48:52;;;;;;;17.58;15.80;;;16.50;99.90;;;;;;4946982;28;20023;-37
2022/06/07 07:51:21;;;;;;;15.77;14.20;;;16.60;99.90;;;;;;4948188;29;20030;-36
2022/06/07 07:53:47;;;;;;;17.92;15.25;;;16.70;99.90;;;;;;4947694;28;20051;-36
2022/06/07 07:56:13;;;;;;;18.20;15.85;;;16.80;99.90;;;;;;4946828;28;20102;-36
2022/06/07 07:58:39;;;;;;;15.30;13.70;;;16.90;99.90;;;;;;4947267;28;20074;-36
2022/06/07 08:01:09;;;;;;;14.27;12.88;;;16.90;99.90;;;;;;4947745;28;20035;-38
2022/06/07 08:03:37;;;;;;;16.50;14.88;;;17.00;99.90;;;;;;4946488;28;20034;-36
2022/06/07 08:06:05;;;;;;;15.20;13.63;;;17.10;99.90;;;;;;4945846;29;20098;-36
2022/06/07 08:08:30;;;;;;;16.48;14.77;;;17.10;99.90;;;;;;4947736;28;20600;-36
2022/06/07 08:10:56;;;;;;;15.90;14.35;;;17.00;99.90;;;;;;4947000;29;20035;-36
2022/06/07 08:13:22;;;;;;;15.32;13.15;;;16.90;99.90;;;;;;4947322;28;20023;-36
2022/06/07 08:15:49;;;;;;;17.05;14.98;;;16.90;99.90;;;;;;4947624;28;20038;-37
2022/06/07 08:18:15;;;;;;;14.05;12.57;;;17.00;99.90;;;;;;4947070;29;20027;-38
2022/06/07 08:20:40;;;;;;;14.25;12.85;;;17.00;99.90;;;;;;4947567;29;20035;-37
2022/06/07 08:23:07;;;;;;;13.05;11.68;;;17.10;99.90;;;;;;4947627;29;20028;-35
2022/06/07 08:25:34;;;;;;;12.52;11.25;;;17.00;99.90;;;;;;4945587;28;20027;-38
2022/06/07 08:28:02;;;;;;;12.20;10.95;;;17.00;99.90;;;;;;4947154;28;20107;-38
2022/06/07 08:30:28;;;;;;;11.95;10.75;;;17.10;99.90;;;;;;4947387;28;20043;-35
2022/06/07 08:32:53;;;;;;;12.50;10.23;;;17.20;99.90;;;;;;4946953;29;20622;-35
2022/06/07 08:38:05;;;;;;;15.63;12.63;;;17.30;99.90;;;;;;4946891;29;20297;-36
2022/06/07 08:40:35;;;;;;;13.23;11.82;;;17.30;99.90;;;;;;4945281;28;20063;-37
2022/06/07 08:43:14;;;;;;;13.75;12.30;;;17.30;99.90;;;;;;4946851;28;20058;-38
2022/06/07 08:45:42;;;;;;;12.55;11.23;;;17.40;99.90;;;;;;4945930;28;20034;-38
2022/06/07 08:48:10;;;;;;;10.88;9.73;;;17.60;99.90;;;;;;4947494;28;20032;-35
2022/06/07 08:50:43;;;;;;;10.43;9.32;;;17.70;99.90;;;;;;4947074;28;20027;-38
2022/06/07 08:53:17;;;;;;;10.18;9.15;;;17.80;99.90;;;;;;4939893;29;20483;-37
2022/06/07 08:55:49;;;;;;;10.68;9.68;;;17.80;99.90;;;;;;4950748;28;20322;-36
2022/06/07 08:58:23;;;;;;;11.15;10.05;;;17.80;99.90;;;;;;4950612;28;20031;-36
2022/06/07 09:00:59;;;;;;;7.97;7.18;;;17.90;99.90;;;;;;4950054;28;20039;-37
2022/06/07 09:03:49;;;;;;;9.85;8.85;;;17.90;99.90;;;;;;4950130;28;20027;-36
2022/06/07 09:06:23;;;;;;;8.73;7.93;;;18.00;99.90;;;;;;4949419;29;20062;-38
2022/06/07 09:08:55;;;;;;;9.90;8.82;;;17.80;99.90;;;;;;4950410;29;20082;-36
2022/06/07 09:14:19;;;;;;;7.97;7.18;;;17.80;99.90;;;;;;4950039;29;20315;-36
2022/06/07 09:16:44;;;;;;;7.32;6.60;;;17.90;99.90;;;;;;4950773;28;20032;-36
2022/06/07 09:19:15;;;;;;;7.80;7.00;;;17.90;99.90;;;;;;4949817;29;20390;-35
2022/06/07 09:21:43;;;;;;;9.30;8.38;;;18.00;99.90;;;;;;4949900;29;20394;-36
2022/06/07 09:24:21;;;;;;;10.65;9.55;;;18.00;99.90;;;;;;4950402;28;20027;-36
2022/06/07 09:26:46;;;;;;;9.88;8.90;;;18.10;99.90;;;;;;4950022;29;20062;-37
2022/06/07 09:29:22;;;;;;;11.05;8.65;;;18.20;99.90;;;;;;4949589;28;20348;-38
2022/06/07 09:31:51;;;;;;;11.30;9.10;;;18.20;99.90;;;;;;4950349;28;20490;-37
2022/06/07 09:34:23;;;;;;;9.48;8.10;;;18.10;99.90;;;;;;4949137;28;20115;-37
2022/06/07 09:36:57;;;;;;;7.68;6.88;;;18.00;99.90;;;;;;4949879;28;20550;-37
2022/06/07 09:39:32;;;;;;;7.93;7.20;;;18.00;99.90;;;;;;4950026;28;20019;-36
2022/06/07 09:42:16;;;;;;;9.50;8.52;;;18.10;99.90;;;;;;4949290;28;20062;-36
2022/06/07 09:44:55;;;;;;;15.55;12.48;;;18.10;99.90;;;;;;4949284;28;20058;-37
2022/06/07 09:47:25;;;;;;;15.90;13.07;;;18.10;99.90;;;;;;4949674;28;20035;-37
2022/06/07 09:50:14;;;;;;;15.77;14.07;;;18.10;99.90;;;;;;4948806;28;20031;-36
2022/06/07 09:52:52;;;;;;;13.50;12.20;;;18.10;99.90;;;;;;4948612;28;20442;-37
2022/06/07 09:55:27;;;;;;;13.10;11.88;;;18.10;99.90;;;;;;4939618;29;20023;-36
2022/06/07 09:58:01;;;;;;;16.58;14.88;;;18.30;99.90;;;;;;4950604;29;20027;-35
2022/06/07 10:00:40;;;;;;;15.13;13.30;;;18.30;99.90;;;;;;4939116;29;20376;-36
2022/06/07 10:03:41;;;;;;;14.38;12.88;;;18.40;99.90;;;;;;4948647;28;20038;-37
2022/06/07 10:06:17;;;;;;;15.45;12.98;;;18.50;99.90;;;;;;4949776;28;20038;-36
2022/06/07 10:09:21;;;;;;;14.27;12.82;;;18.60;99.90;;;;;;4949035;28;20034;-38
2022/06/07 10:12:05;;;;;;;17.10;14.73;;;18.60;99.90;;;;;;4906671;29;20028;-36
2022/06/07 10:14:41;;;;;;;13.30;11.90;;;18.60;99.90;;;;;;4945552;28;20645;-36
2022/06/07 10:17:47;;;;;;;12.20;10.98;;;18.50;99.90;;;;;;4948741;28;20055;-36
2022/06/07 10:20:49;;;;;;;16.85;14.48;;;18.50;99.90;;;;;;4948996;28;20509;-36
2022/06/07 10:23:56;;;;;;;13.25;11.93;;;18.50;99.90;;;;;;4949656;28;20035;-36
2022/06/07 10:26:42;;;;;;;11.80;10.68;;;18.50;99.90;;;;;;4899445;29;20032;-38
2022/06/07 10:29:13;;;;;;;13.48;12.02;;;18.50;99.90;;;;;;4946322;28;20542;-36
2022/06/07 10:32:08;;;;;;;11.20;10.00;;;18.50;99.90;;;;;;4948647;28;20046;-38
2022/06/07 10:34:43;;;;;;;13.50;12.23;;;18.60;99.90;;;;;;4948821;28;20031;-37
2022/06/07 10:37:17;;;;;;;13.63;11.07;;;18.70;99.90;;;;;;4949722;28;20031;-37
2022/06/07 10:40:06;;;;;;;12.95;11.65;;;18.70;99.90;;;;;;4947871;28;20030;-37
2022/06/07 10:42:50;;;;;;;11.35;10.20;;;18.80;99.90;;;;;;4948692;29;20145;-37
2022/06/07 10:45:38;;;;;;;14.32;11.40;;;19.00;99.90;;;;;;4948233;28;20196;-36
2022/06/07 10:48:11;;;;;;;11.82;10.68;;;19.20;99.90;;;;;;4948698;28;20490;-36
2022/06/07 10:50:49;;;;;;;11.02;9.93;;;19.40;99.90;;;;;;4947832;28;20467;-37
2022/06/07 10:53:40;;;;;;;12.10;10.90;;;19.40;99.90;;;;;;4947210;28;20337;-36
2022/06/07 10:56:14;;;;;;;14.07;12.65;;;19.50;99.90;;;;;;4948297;28;20383;-38
2022/06/07 10:58:43;;;;;;;12.63;11.15;;;19.40;99.90;;;;;;4946158;29;20037;-36
2022/06/07 11:01:27;;;;;;;11.05;9.85;;;19.40;99.90;;;;;;4948383;28;20089;-37
2022/06/07 11:04:05;;;;;;;11.57;10.48;;;19.40;99.90;;;;;;4929372;29;20066;-36
2022/06/07 11:09:24;;;;;;;10.32;9.32;;;19.30;99.90;;;;;;4948574;29;20067;-36
2022/06/07 11:11:56;;;;;;;12.27;11.07;;;19.30;99.90;;;;;;4948300;29;20142;-38
2022/06/07 11:14:30;;;;;;;10.73;9.63;;;19.20;99.90;;;;;;4947160;28;20435;-38
2022/06/07 11:17:25;;;;;;;11.73;10.50;;;19.10;99.90;;;;;;4947677;29;20039;-38
2022/06/07 11:19:52;;;;;;;12.05;10.75;;;18.90;99.90;;;;;;4947806;28;20031;-38
2022/06/07 11:22:21;;;;;;;14.23;12.73;;;18.70;99.90;;;;;;4947912;28;20039;-36
2022/06/07 11:25:00;;;;;;;12.30;11.07;;;18.50;99.90;;;;;;4947915;28;20031;-35
2022/06/07 11:27:29;;;;;;;15.05;13.45;;;18.40;99.90;;;;;;4945915;28;20027;-35
2022/06/07 11:30:27;;;;;;;14.38;12.98;;;18.50;99.90;;;;;;4948523;28;20371;-35
2022/06/07 11:32:55;;;;;;;12.82;11.52;;;18.50;99.90;;;;;;4947820;29;20471;-37
2022/06/07 11:35:43;;;;;;;18.17;16.35;;;18.60;99.90;;;;;;4946218;28;20042;-37
2022/06/07 11:38:19;;;;;;;18.35;15.82;;;18.70;99.90;;;;;;4944901;29;20031;-37
2022/06/07 11:40:47;;;;;;;14.05;12.65;;;18.80;99.90;;;;;;4946758;28;20171;-37
2022/06/07 11:43:48;;;;;;;11.05;9.95;;;18.90;99.90;;;;;;4948139;28;20035;-35
2022/06/07 11:46:26;;;;;;;13.93;12.57;;;19.10;99.90;;;;;;4947348;29;20407;-36
2022/06/07 11:48:53;;;;;;;12.77;11.48;;;19.40;99.90;;;;;;4947074;29;20490;-36
2022/06/07 11:51:20;;;;;;;11.65;10.55;;;19.60;99.90;;;;;;4947164;28;20499;-38
2022/06/07 11:54:00;;;;;;;11.70;10.60;;;19.80;99.90;;;;;;4946536;28;20578;-38
2022/06/07 11:56:41;;;;;;;11.48;10.20;;;20.10;99.90;;;;;;4946466;28;20031;-37
2022/06/07 11:59:19;;;;;;;13.50;11.98;;;20.30;99.90;;;;;;4938342;28;20027;-36
2022/06/07 12:02:07;;;;;;;10.20;9.20;;;20.40;99.90;;;;;;4947145;28;20243;-37
2022/06/07 12:04:55;;;;;;;9.65;8.73;;;20.50;99.90;;;;;;4937115;29;20031;-37
2022/06/07 12:07:35;;;;;;;9.88;8.95;;;20.60;99.90;;;;;;4946480;29;20031;-37
2022/06/07 12:10:16;;;;;;;9.07;8.20;;;20.80;99.90;;;;;;4946941;29;20027;-36
2022/06/07 12:12:52;;;;;;;8.73;7.93;;;20.90;99.90;;;;;;4946970;29;20146;-36
2022/06/07 12:15:22;;;;;;;11.77;9.30;;;21.00;99.90;;;;;;4947606;29;20019;-37
2022/06/07 12:18:25;;;;;;;9.68;8.60;;;21.10;99.90;;;;;;4946787;28;20035;-37
2022/06/07 12:21:06;;;;;;;6.53;5.93;;;21.10;99.90;;;;;;4947199;28;20483;-38
2022/06/07 12:23:37;;;;;;;7.70;6.93;;;21.20;99.90;;;;;;4945978;28;20443;-39
2022/06/07 12:26:22;;;;;;;10.43;8.63;;;21.30;99.90;;;;;;4950751;28;20027;-37
2022/06/07 12:29:11;;;;;;;8.63;7.18;;;21.30;99.90;;;;;;4946881;29;20087;-37
2022/06/07 12:31:48;;;;;;;6.32;5.78;;;21.30;99.90;;;;;;4949457;29;20028;-35
2022/06/07 12:34:24;;;;;;;7.78;6.97;;;21.40;99.90;;;;;;4950647;29;20035;-36
2022/06/07 12:36:53;;;;;;;8.40;7.43;;;21.40;99.90;;;;;;4932469;29;20507;-37
2022/06/07 12:39:19;;;;;;;8.68;7.78;;;21.40;99.90;;;;;;4944961;29;20031;-37
2022/06/07 12:42:08;;;;;;;8.95;8.05;;;21.30;99.90;;;;;;4950386;28;20053;-36
2022/06/07 12:44:41;;;;;;;8.50;7.10;;;21.20;99.90;;;;;;4950002;29;20038;-36
2022/06/07 12:47:07;;;;;;;;;;;21.10;99.90;;;;;;4952805;28;20027;-37
2022/06/07 12:49:44;;;;;;;7.35;6.50;;;21.00;99.90;;;;;;4950345;28;19954;-37
2022/06/07 12:52:15;;;;;;;5.78;5.32;;;20.90;99.90;;;;;;4949867;28;20035;-38
2022/06/07 12:54:47;;;;;;;8.65;7.68;;;21.00;99.90;;;;;;4950715;28;20055;-36
2022/06/07 12:57:15;;;;;;;;;;;21.10;99.90;;;;;;4951387;28;20558;-36
2022/06/07 12:59:50;;;;;;;8.50;7.68;;;21.20;99.90;;;;;;4949965;28;20285;-36
2022/06/07 13:02:22;;;;;;;11.32;9.40;;;21.40;99.90;;;;;;4950830;28;20087;-37
2022/06/07 13:04:49;;;;;;;;;;;21.50;99.90;;;;;;4951143;28;20109;-37